Time;durP1;ratioP1;P1;durP2;ratioP2;P2;SDS_P1;SDS_P2;PMS_P1;PMS_P2;Temp;Humidity;BMP_temperature;BMP_pressure;BME280_temperature;BME280_humidity;BME280_pressure;Samples;Min_cycle;Max_cycle;Signal;HPM_P1;HPM_P2
2021/12/16 00:34:00;;;;;;;72.30;33.85;;;;;;;1.69;100.00;98404.97;4965514;28;20027;-93
2021/12/16 00:36:26;;;;;;;73.90;32.97;;;;;;;1.41;100.00;98366.69;4948938;28;20034;-94
2021/12/16 00:38:52;;;;;;;83.43;38.17;;;;;;;1.91;100.00;98440.69;4947238;28;20458;-94
2021/12/16 00:41:17;;;;;;;78.97;32.63;;;;;;;1.87;100.00;98440.78;4947910;28;20027;-92
2021/12/16 00:49:40;;;;;;;77.38;32.17;;;;;;;2.00;100.00;98468.75;4962615;28;20023;-90
2021/12/16 00:55:09;;;;;;;71.07;32.33;;;;;;;1.94;100.00;98451.19;4965561;28;20033;-92
2021/12/16 00:57:35;;;;;;;67.93;31.65;;;;;;;1.72;100.00;98417.25;4947763;28;20391;-91
2021/12/16 01:00:04;;;;;;;68.43;33.03;;;;;;;1.72;100.00;98428.66;4944535;28;20509;-93
2021/12/16 01:33:32;;;;;;;83.13;37.85;;;;;;;1.90;100.00;98440.72;4963867;28;20030;-92
2021/12/16 01:35:21;;;;;;;100.28;45.00;;;;;;;1.56;100.00;98451.72;4966826;28;20033;-92
2021/12/16 01:46:29;;;;;;;106.88;48.42;;;;;;;1.21;100.00;98416.09;4968576;28;20049;-92
2021/12/16 01:49:14;;;;;;;106.90;46.97;;;;;;;1.13;100.00;98403.03;4982298;28;20117;-93
2021/12/16 01:57:35;;;;;;;102.65;46.65;;;;;;;1.14;100.00;98419.69;4888590;29;20033;-92
2021/12/16 02:00:08;;;;;;;114.68;46.00;;;;;;;0.77;100.00;98369.19;4950976;28;20097;-92
2021/12/16 02:02:49;;;;;;;107.72;46.03;;;;;;;0.52;100.00;98347.47;4958969;28;20037;-92
2021/12/16 02:11:23;;;;;;;114.53;46.92;;;;;;;0.49;100.00;98348.34;4995286;28;20054;-93
2021/12/16 02:27:45;;;;;;;101.15;44.83;;;;;;;1.04;100.00;98435.59;4973147;29;20054;-93
2021/12/16 02:31:10;;;;;;;100.93;40.33;;;;;;;1.12;100.00;98430.25;4958596;29;20027;-94
2021/12/16 02:33:17;;;;;;;87.85;38.22;;;;;;;1.12;100.00;98427.59;4966795;29;20321;-93
2021/12/16 02:35:58;;;;;;;93.53;40.30;;;;;;;0.69;100.00;98337.66;4953139;29;20023;-92
2021/12/16 02:38:28;;;;;;;101.40;42.25;;;;;;;0.81;100.00;98353.31;4953930;29;20474;-92
2021/12/16 02:40:53;;;;;;;94.38;41.05;;;;;;;0.89;100.00;98367.25;4950102;29;20059;-93
2021/12/16 02:43:51;;;;;;;86.38;37.53;;;;;;;1.23;100.00;98404.63;4949557;29;20027;-93
2021/12/16 02:48:39;;;;;;;88.38;37.63;;;;;;;1.04;100.00;98353.06;4965810;29;20058;-93
2021/12/16 02:51:18;;;;;;;83.10;36.63;;;;;;;1.15;100.00;98360.84;4949303;29;20471;-94
2021/12/16 02:53:50;;;;;;;74.50;34.45;;;;;;;1.21;100.00;98358.13;4951045;29;20057;-94
2021/12/16 02:56:16;;;;;;;68.22;32.05;;;;;;;1.18;100.00;98343.22;4951170;29;20042;-92
2021/12/16 02:58:45;;;;;;;72.95;33.25;;;;;;;1.21;100.00;98339.69;4951356;29;20067;-93
2021/12/16 03:01:20;;;;;;;64.03;29.15;;;;;;;1.56;100.00;98403.38;4948964;29;20035;-93
2021/12/16 03:03:46;;;;;;;57.95;26.95;;;;;;;1.13;100.00;98331.88;4947575;29;20058;-92
2021/12/16 03:06:12;;;;;;;46.50;22.00;;;;;;;1.50;100.00;98393.78;4946165;29;20031;-92
2021/12/16 03:08:39;;;;;;;45.95;20.13;;;;;;;1.22;100.00;98357.25;4962043;29;20038;-93
2021/12/16 03:11:20;;;;;;;51.75;23.38;;;;;;;1.42;100.00;98398.25;4945684;29;20103;-93
2021/12/16 03:16:53;;;;;;;57.15;23.95;;;;;;;1.36;100.00;98400.97;4963761;29;20109;-93
2021/12/16 03:19:44;;;;;;;55.08;23.42;;;;;;;1.27;100.00;98390.53;4949992;29;20113;-93
2021/12/16 03:22:20;;;;;;;59.92;25.55;;;;;;;1.34;100.00;98421.22;4964936;28;20130;-93
2021/12/16 03:30:28;;;;;;;47.13;21.23;;;;;;;0.62;100.00;98332.44;4960633;29;20038;-93
2021/12/16 03:36:03;;;;;;;41.78;19.20;;;;;;;1.04;100.00;98424.19;4960359;29;20039;-91
2021/12/16 03:38:27;;;;;;;58.30;26.20;;;;;;;1.06;100.00;98417.13;4962938;29;20063;-92
2021/12/16 03:40:53;;;;;;;89.95;33.58;;;;;;;1.17;100.00;98422.31;4950987;29;20086;-93
2021/12/16 03:43:19;;;;;;;120.00;46.60;;;;;;;1.19;100.00;98429.28;4952120;29;20033;-93
2021/12/16 03:49:19;;;;;;;133.15;49.80;;;;;;;0.61;100.00;98355.28;4969326;29;20047;-92
2021/12/16 03:51:52;;;;;;;125.35;47.40;;;;;;;0.85;100.00;98396.28;4931023;29;20058;-94
2021/12/16 03:54:22;;;;;;;64.00;27.95;;;;;;;0.81;100.00;98389.28;4946525;29;20113;-93
2021/12/16 03:56:48;;;;;;;64.72;26.90;;;;;;;0.78;100.00;98402.50;4944639;29;20430;-92
2021/12/16 04:02:37;;;;;;;86.47;31.90;;;;;;;0.48;100.00;98344.00;4967957;29;20050;-92
2021/12/16 04:05:04;;;;;;;62.03;25.50;;;;;;;0.60;100.00;98353.53;4963692;28;20055;-94
2021/12/16 04:07:33;;;;;;;39.30;18.35;;;;;;;0.54;100.00;98349.22;4946533;29;20410;-92
2021/12/16 04:09:59;;;;;;;43.03;20.05;;;;;;;0.62;100.00;98349.13;4946094;29;20419;-91
2021/12/16 04:12:26;;;;;;;41.33;18.08;;;;;;;0.74;100.00;98359.53;4945544;29;20023;-92
2021/12/16 04:14:55;;;;;;;39.83;19.00;;;;;;;0.72;100.00;98357.78;4946182;29;20023;-93
2021/12/16 04:17:25;;;;;;;41.70;19.75;;;;;;;1.23;100.00;98436.25;4932351;29;20011;-93
2021/12/16 04:19:52;;;;;;;41.20;19.88;;;;;;;0.89;100.00;98375.16;4932589;29;20055;-93
2021/12/16 04:22:27;;;;;;;45.65;21.67;;;;;;;0.97;100.00;98369.81;4952373;28;20098;-92
2021/12/16 04:24:54;;;;;;;46.45;20.95;;;;;;;1.26;100.00;98428.31;4954432;28;20030;-95
2021/12/16 04:27:29;;;;;;;42.17;19.90;;;;;;;0.79;100.00;98343.69;4957428;28;20011;-95
2021/12/16 04:29:57;;;;;;;43.38;20.77;;;;;;;0.74;100.00;98340.25;4952636;28;20031;-95
2021/12/16 04:32:24;;;;;;;48.13;20.25;;;;;;;1.04;100.00;98392.59;4950778;28;20035;-92
2021/12/16 04:34:50;;;;;;;51.38;21.10;;;;;;;1.05;100.00;98396.94;4951295;28;20036;-93
2021/12/16 04:37:16;;;;;;;48.70;23.05;;;;;;;0.76;100.00;98341.97;4950069;28;20033;-93
2021/12/16 04:39:47;;;;;;;44.80;21.58;;;;;;;0.68;100.00;98341.16;4949890;28;20027;-93
2021/12/16 04:42:14;;;;;;;51.50;21.70;;;;;;;0.94;100.00;98390.94;4952106;28;20099;-92
2021/12/16 04:44:41;;;;;;;48.88;22.42;;;;;;;0.46;100.00;98337.88;4949382;28;20058;-93
2021/12/16 04:47:07;;;;;;;49.45;23.83;;;;;;;0.65;100.00;98388.56;4944246;28;20114;-92
2021/12/16 04:49:33;;;;;;;55.40;26.13;;;;;;;0.51;100.00;98396.59;4945357;28;20117;-91
2021/12/16 04:52:04;;;;;;;59.97;27.75;;;;;;;0.43;100.00;98422.09;4945933;28;20030;-92
2021/12/16 04:54:29;;;;;;;63.55;29.42;;;;;;;0.53;100.00;98436.94;4946558;28;20090;-92
2021/12/16 04:56:57;;;;;;;54.30;23.98;;;;;;;0.25;100.00;98401.19;4944648;28;20063;-92
2021/12/16 04:59:23;;;;;;;53.55;23.50;;;;;;;0.36;100.00;98423.06;4946781;28;20498;-93
2021/12/16 05:02:02;;;;;;;57.20;22.70;;;;;;;-0.19;100.00;98342.81;4968046;28;20031;-94
2021/12/16 05:04:30;;;;;;;56.90;24.80;;;;;;;0.07;100.00;98393.44;4952397;28;20089;-93
2021/12/16 05:06:55;;;;;;;62.72;24.80;;;;;;;0.31;100.00;98435.34;4949926;28;20030;-94
2021/12/16 05:12:15;;;;;;;68.82;28.92;;;;;;;-0.37;100.00;98338.53;4980990;28;20038;-94
2021/12/16 05:14:42;;;;;;;67.70;28.75;;;;;;;-0.30;100.00;98345.50;4954578;28;20026;-93
2021/12/16 05:17:23;;;;;;;74.90;30.52;;;;;;;-0.07;100.00;98408.44;4952240;28;20050;-93
2021/12/16 05:19:51;;;;;;;95.50;38.22;;;;;;;0.05;100.00;98426.78;4953250;28;20459;-92
2021/12/16 05:25:07;;;;;;;151.73;52.05;;;;;;;-0.02;100.00;98422.44;4971586;28;20033;-92
2021/12/16 05:27:33;;;;;;;118.03;45.03;;;;;;;-0.13;100.00;98404.09;4953804;28;20029;-91
2021/12/16 05:29:58;;;;;;;183.25;48.28;;;;;;;-0.04;100.00;98425.09;4952899;28;20485;-91
2021/12/16 05:32:35;;;;;;;212.02;42.00;;;;;;;-0.27;100.00;98395.41;4956985;28;20003;-94
2021/12/16 05:35:00;;;;;;;140.85;44.13;;;;;;;-0.24;100.00;98411.16;4961171;28;20102;-87
2021/12/16 05:41:40;;;;;;;189.38;54.28;;;;;;;-0.04;100.00;98448.75;4986045;28;20041;-92
2021/12/16 05:44:06;;;;;;;167.50;48.55;;;;;;;-0.22;100.00;98409.41;4963818;28;20109;-92
2021/12/16 05:49:58;;;;;;;136.75;53.55;;;;;;;-0.22;100.00;98416.44;4978644;28;20033;-76
2021/12/16 05:52:28;;;;;;;153.35;56.33;;;;;;;-0.24;100.00;98402.41;4968055;28;20046;-88
2021/12/16 05:56:07;;;;;;;;;;;;;;;;;;;;;
2021/12/16 06:01:55;;;;;;;180.18;60.92;;;;;;;-0.21;100.00;98428.66;4923847;29;20087;-89
2021/12/16 06:05:06;;;;;;;154.20;58.17;;;;;;;-0.02;100.00;98456.59;4963776;28;20034;-90
2021/12/16 06:07:32;;;;;;;178.35;57.08;;;;;;;-0.30;100.00;98402.44;4894325;28;20104;-90
2021/12/16 07:06:41;;;;;;;211.32;99.88;;;;;;;1.70;100.00;98474.38;4933987;28;20466;-88
2021/12/16 07:09:35;;;;;;;125.45;53.40;;;;;;;1.32;100.00;98378.22;4961012;28;20502;-90
2021/12/16 07:12:10;;;;;;;128.85;56.95;;;;;;;1.60;100.00;98411.22;4961508;28;20133;-88
2021/12/16 07:22:16;;;;;;;;;;;;;;;;;;;;;
2021/12/16 07:31:42;;;;;;;94.03;44.22;;;;;;;2.57;100.00;98461.72;4979979;28;20065;-89
2021/12/16 07:34:10;;;;;;;95.50;44.13;;;;;;;2.63;100.00;98441.38;4961380;28;20535;-91
2021/12/16 07:36:38;;;;;;;90.57;43.97;;;;;;;2.70;100.00;98453.59;4971387;28;20101;-90
2021/12/16 07:39:36;;;;;;;107.10;50.67;;;;;;;2.74;100.00;98447.34;4952002;28;20025;-92
2021/12/16 07:42:03;;;;;;;110.75;50.50;;;;;;;2.97;100.00;98489.25;4949378;29;20396;-90
2021/12/16 07:44:29;;;;;;;111.07;50.88;;;;;;;2.97;100.00;98486.59;4938775;28;20509;-90
2021/12/16 07:46:59;;;;;;;142.15;65.05;;;;;;;2.73;100.00;98450.91;4967895;28;20042;-90
2021/12/16 07:53:16;;;;;;;150.07;68.32;;;;;;;2.95;100.00;98484.91;4977539;28;20037;-91
2021/12/16 07:55:42;;;;;;;116.32;53.67;;;;;;;2.82;100.00;98462.22;4945158;28;20043;-90
2021/12/16 07:58:09;;;;;;;92.40;47.08;;;;;;;2.90;100.00;98457.66;4945928;28;20049;-90
2021/12/16 08:00:41;;;;;;;127.55;59.53;;;;;;;2.66;100.00;98436.06;4946721;28;20034;-91
2021/12/16 08:03:10;;;;;;;123.20;59.60;;;;;;;2.90;100.00;98462.94;4945305;28;20073;-91
2021/12/16 08:05:40;;;;;;;143.25;64.38;;;;;;;2.93;100.00;98455.84;4943686;28;20035;-91
2021/12/16 08:08:07;;;;;;;131.85;61.53;;;;;;;2.61;100.00;98400.94;4945516;28;20490;-90
2021/12/16 08:10:33;;;;;;;139.90;64.32;;;;;;;2.94;100.00;98451.44;4934693;29;20031;-88
2021/12/16 08:12:58;;;;;;;140.60;61.88;;;;;;;3.00;100.00;98457.50;4931140;28;20035;-88
2021/12/16 08:15:25;;;;;;;134.25;59.95;;;;;;;3.20;100.00;98455.34;4945028;28;20473;-91
2021/12/16 08:17:59;;;;;;;109.75;53.17;;;;;;;3.17;100.00;98428.97;4943958;28;20042;-92
2021/12/16 08:20:25;;;;;;;114.18;53.58;;;;;;;3.10;100.00;98426.50;4945506;28;20034;-91
2021/12/16 08:22:55;;;;;;;175.32;84.97;;;;;;;3.06;100.00;98403.66;4936024;29;20137;-93
2021/12/16 08:25:23;;;;;;;130.65;63.53;;;;;;;3.52;100.00;98462.69;4925260;29;20027;-91
2021/12/16 08:27:49;;;;;;;134.70;60.58;;;;;;;3.51;100.00;98439.78;4925133;29;20034;-90
2021/12/16 08:30:18;;;;;;;159.00;64.85;;;;;;;3.48;100.00;98445.13;4925121;29;20061;-90
2021/12/16 08:33:41;;;;;;;;;;;;;;;;;;;;;
2021/12/16 08:36:15;;;;;;;;;;;;;;;3.89;100.00;98489.28;4955292;29;20075;-92
2021/12/16 08:38:42;;;;;;;102.97;48.90;;;;;;;3.99;100.00;98492.63;4926363;29;20458;-91
2021/12/16 08:41:13;;;;;;;94.88;42.92;;;;;;;3.54;100.00;98434.44;4927020;29;20031;-91
2021/12/16 08:43:41;;;;;;;96.78;44.50;;;;;;;3.93;100.00;98490.09;4923938;29;20128;-91
2021/12/16 08:46:09;;;;;;;89.53;42.45;;;;;;;3.64;100.00;98443.06;4924562;29;20015;-91
2021/12/16 08:48:35;;;;;;;85.50;40.38;;;;;;;4.08;100.00;98503.00;4924631;29;20289;-91
2021/12/16 08:51:01;;;;;;;77.63;38.15;;;;;;;3.99;100.00;98479.38;4923642;29;20603;-90
2021/12/16 08:53:27;;;;;;;77.03;37.95;;;;;;;3.92;100.00;98483.94;4924530;29;20043;-92
2021/12/16 08:59:20;;;;;;;72.55;35.65;;;;;;;3.82;100.00;98471.78;4957358;29;20099;-92
2021/12/16 09:01:48;;;;;;;91.05;41.47;;;;;;;3.98;100.00;98461.75;4924932;29;20462;-92
2021/12/16 09:04:16;;;;;;;83.93;40.17;;;;;;;4.04;100.00;98435.16;4925459;29;20114;-91
2021/12/16 09:06:42;;;;;;;84.47;41.75;;;;;;;4.26;99.80;98462.91;4924301;29;20463;-90
2021/12/16 09:09:08;;;;;;;106.60;51.08;;;;;;;4.10;99.24;98419.13;4940724;29;20035;-90
2021/12/16 09:11:40;;;;;;;102.38;48.47;;;;;;;4.09;100.00;98407.66;4941267;29;20027;-89
2021/12/16 09:14:06;;;;;;;;;;;;;;;4.64;100.00;98476.16;4942709;29;20148;-91
2021/12/16 09:16:33;;;;;;;114.20;52.97;;;;;;;4.58;100.00;98471.00;4941158;29;20004;-90
2021/12/16 09:19:00;;;;;;;108.78;53.35;;;;;;;4.73;99.85;98462.69;4925208;29;20505;-90
2021/12/16 09:21:29;;;;;;;163.57;78.68;;;;;;;4.38;98.17;98388.47;4927602;29;20035;-89
2021/12/16 09:23:56;;;;;;;123.15;54.42;;;;;;;4.78;97.22;98425.44;4922884;29;20046;-91
2021/12/16 09:26:23;;;;;;;109.25;52.13;;;;;;;4.85;97.29;98427.94;4924667;29;20063;-89
2021/12/16 09:28:49;;;;;;;119.15;57.83;;;;;;;4.67;99.72;98431.03;4939290;29;20031;-93
2021/12/16 09:31:18;;;;;;;109.05;53.05;;;;;;;4.71;99.57;98440.63;4927961;29;20031;-89
2021/12/16 09:33:49;;;;;;;103.57;51.15;;;;;;;3.98;100.00;98375.28;4925186;29;20027;-92
2021/12/16 09:36:18;;;;;;;102.10;49.80;;;;;;;3.96;100.00;98448.56;4941225;29;20058;-91
2021/12/16 09:38:45;;;;;;;109.22;53.20;;;;;;;3.91;100.00;98402.78;4923860;29;20562;-90
2021/12/16 09:41:10;;;;;;;110.57;51.85;;;;;;;4.20;100.00;98423.31;4939350;29;20159;-92
2021/12/16 09:43:40;;;;;;;98.03;47.95;;;;;;;4.27;100.00;98415.22;4940528;29;20023;-90
2021/12/16 09:46:08;;;;;;;101.18;49.60;;;;;;;4.46;100.00;98393.59;4924797;29;20031;-89
2021/12/16 09:48:35;;;;;;;106.53;50.47;;;;;;;5.60;94.19;98394.94;4924259;29;20101;-89
2021/12/16 09:51:04;;;;;;;100.40;49.30;;;;;;;7.15;84.58;98448.53;4924336;29;20026;-90
2021/12/16 09:53:30;;;;;;;98.20;50.95;;;;;;;8.33;75.08;98399.81;4924528;29;20122;-91
2021/12/16 09:56:01;;;;;;;105.15;54.22;;;;;;;9.80;68.50;98386.38;4927732;29;20058;-91
2021/12/16 09:58:48;;;;;;;87.22;46.80;;;;;;;11.60;60.66;98389.97;4928177;29;20521;-91
2021/12/16 10:01:18;;;;;;;73.30;39.50;;;;;;;11.22;57.32;98388.44;4928558;29;20035;-90
2021/12/16 10:03:46;;;;;;;79.63;39.40;;;;;;;12.70;54.54;98390.22;4927358;29;20423;-91
2021/12/16 10:06:11;;;;;;;68.07;36.30;;;;;;;14.04;50.61;98383.94;4926960;29;20077;-92
2021/12/16 10:08:37;;;;;;;53.55;27.02;;;;;;;13.53;50.24;98382.63;4926195;29;20066;-91
2021/12/16 10:11:07;;;;;;;62.20;33.70;;;;;;;11.95;53.41;98385.47;4926698;29;20487;-90
2021/12/16 10:13:43;;;;;;;63.75;33.47;;;;;;;10.74;56.86;98408.66;4927186;29;20042;-89
2021/12/16 10:18:56;;;;;;;46.92;24.23;;;;;;;8.93;62.76;98393.78;4947880;28;20058;-92
2021/12/16 10:21:23;;;;;;;39.55;21.35;;;;;;;8.77;62.66;98398.00;4963172;28;20491;-92
2021/12/16 10:23:48;;;;;;;52.00;27.00;;;;;;;8.10;64.04;98370.50;4929262;28;20031;-91
2021/12/16 10:26:20;;;;;;;40.28;22.00;;;;;;;7.82;65.59;98397.31;4964625;28;20027;-93
2021/12/16 10:28:47;;;;;;;;;;;;;;;7.57;67.58;98404.44;4948767;28;20061;-93
2021/12/16 10:31:23;;;;;;;55.83;27.55;;;;;;;7.03;69.74;98341.66;4930451;29;19932;-93
2021/12/16 10:34:07;;;;;;;49.70;24.67;;;;;;;8.09;68.50;98380.28;4929180;28;20034;-93
2021/12/16 10:36:47;;;;;;;41.00;22.55;;;;;;;9.89;60.41;98318.28;4929650;29;20025;-93
2021/12/16 10:39:20;;;;;;;31.88;16.98;;;;;;;11.72;53.82;98292.03;4934270;29;20027;-93
2021/12/16 10:41:52;;;;;;;37.85;18.90;;;;;;;13.26;49.36;98326.00;4943178;29;20031;-95
2021/12/16 10:44:30;;;;;;;41.97;22.77;;;;;;;14.11;46.54;98262.38;4944600;29;20027;-92
2021/12/16 10:47:02;;;;;;;179.20;90.70;;;;;;;15.40;44.21;98285.97;4930068;28;20086;-92
2021/12/16 10:52:49;;;;;;;41.50;25.48;;;;;;;16.10;40.83;98267.50;4963077;29;20042;-93
2021/12/16 10:55:15;;;;;;;38.15;23.67;;;;;;;16.55;39.48;98303.81;4945104;29;20055;-93
2021/12/16 10:57:44;;;;;;;38.45;23.95;;;;;;;16.73;38.69;98262.75;4928834;29;20027;-94
2021/12/16 11:00:13;;;;;;;27.48;16.40;;;;;;;17.25;37.35;98292.13;4928413;28;20039;-93
2021/12/16 11:02:40;;;;;;;34.78;22.08;;;;;;;16.66;38.44;98285.84;4928310;29;20027;-93
2021/12/16 11:05:21;;;;;;;27.70;16.70;;;;;;;15.17;39.32;98273.22;4927675;29;20031;-92
2021/12/16 11:07:59;;;;;;;24.00;14.35;;;;;;;13.31;42.46;98290.81;4927679;29;20039;-92
2021/12/16 11:10:36;;;;;;;24.70;14.13;;;;;;;12.93;43.92;98309.19;4928299;29;20110;-93
2021/12/16 11:13:09;;;;;;;31.63;19.80;;;;;;;12.48;45.74;98327.03;4928670;29;20031;-93
2021/12/16 11:15:43;;;;;;;26.45;14.52;;;;;;;11.52;46.71;98268.09;4930894;29;20194;-93
2021/12/16 11:18:14;;;;;;;27.83;16.15;;;;;;;12.06;46.03;98291.03;4928407;29;20069;-91
2021/12/16 11:20:50;;;;;;;30.83;16.40;;;;;;;12.41;46.14;98285.41;4928123;29;20027;-94
2021/12/16 11:23:32;;;;;;;22.67;13.40;;;;;;;13.17;43.76;98278.22;4929466;28;20499;-93
2021/12/16 11:26:06;;;;;;;;;;;;;;;14.40;41.08;98306.25;4929608;29;20031;-91
2021/12/16 11:28:41;;;;;;;14.43;7.40;;;;;;;14.50;40.21;98287.66;4924037;28;19918;-80
2021/12/16 11:31:23;;;;;;;15.05;8.20;;;;;;;15.66;38.87;98285.03;4934927;29;20022;-82
2021/12/16 11:33:49;;;;;;;;;;;;;;;15.71;38.03;98282.91;4934638;29;20055;-81
2021/12/16 11:36:17;;;;;;;10.75;6.85;;;;;;;16.07;37.10;98283.91;4920143;29;19923;-87
2021/12/16 11:39:07;;;;;;;15.93;6.90;;;;;;;16.12;37.69;98297.94;4913896;29;20035;-86
2021/12/16 11:41:43;;;;;;;37.80;24.67;;;;;;;16.48;37.11;98297.97;4902598;29;20043;-87
2021/12/16 11:44:16;;;;;;;10.00;7.03;;;;;;;15.25;37.73;98292.44;4950242;28;20030;-82
2021/12/16 11:46:52;;;;;;;13.77;7.82;;;;;;;13.49;41.63;98311.19;4936806;29;20035;-84
2021/12/16 11:49:21;;;;;;;15.20;9.30;;;;;;;12.11;44.33;98310.41;4921654;29;20562;-83
2021/12/16 11:52:07;;;;;;;14.18;9.32;;;;;;;10.67;47.46;98307.38;4940755;29;20039;-82
2021/12/16 11:54:37;;;;;;;22.27;11.88;;;;;;;9.93;50.63;98330.56;4945115;28;20051;-83
2021/12/16 11:57:03;;;;;;;21.55;13.07;;;;;;;9.32;52.23;98332.47;4951751;28;20035;-83
2021/12/16 11:59:30;;;;;;;17.98;10.20;;;;;;;9.14;52.18;98335.94;4952663;28;20089;-83
2021/12/16 12:01:57;;;;;;;19.55;10.23;;;;;;;8.87;55.66;98340.69;4948400;28;20473;-85
2021/12/16 12:04:31;;;;;;;21.45;12.05;;;;;;;8.88;54.03;98338.91;4951848;28;20027;-85
2021/12/16 12:07:00;;;;;;;17.05;10.55;;;;;;;8.76;53.18;98331.41;4941194;28;20146;-84
2021/12/16 12:09:36;;;;;;;25.52;15.02;;;;;;;8.39;54.21;98346.25;4928814;28;20038;-80
2021/12/16 12:12:02;;;;;;;20.73;12.25;;;;;;;8.18;58.24;98345.28;4945330;28;20589;-79
2021/12/16 12:14:32;;;;;;;22.75;11.13;;;;;;;8.26;57.76;98354.78;4925333;28;20034;-80
2021/12/16 12:17:08;;;;;;;18.10;8.93;;;;;;;8.24;57.65;98351.31;4946608;28;20514;-79
2021/12/16 12:19:41;;;;;;;15.43;8.75;;;;;;;7.93;57.02;98336.53;4965114;28;20027;-80
2021/12/16 12:22:06;;;;;;;18.02;9.15;;;;;;;7.47;60.53;98344.50;4937539;28;20015;-79
2021/12/16 12:24:35;;;;;;;13.82;8.13;;;;;;;7.22;60.76;98348.97;4944491;29;20038;-80
2021/12/16 12:27:22;;;;;;;18.42;10.27;;;;;;;6.90;62.86;98340.34;4943766;28;20358;-79
2021/12/16 12:30:08;;;;;;;19.00;10.60;;;;;;;6.73;65.63;98358.66;4951550;28;20045;-80
2021/12/16 12:32:44;;;;;;;18.73;10.30;;;;;;;6.71;65.70;98343.66;4952960;28;20047;-79
2021/12/16 12:35:12;;;;;;;28.48;12.00;;;;;;;6.52;65.83;98344.28;4950653;28;20038;-81
2021/12/16 12:37:40;;;;;;;20.95;11.18;;;;;;;6.20;67.37;98336.50;4948167;28;20104;-79
2021/12/16 12:40:22;;;;;;;20.17;10.60;;;;;;;6.26;67.22;98327.47;4944122;28;20038;-79
2021/12/16 12:42:49;;;;;;;19.77;10.07;;;;;;;6.38;66.75;98325.28;4924272;29;20032;-79
2021/12/16 12:45:19;;;;;;;15.85;8.45;;;;;;;6.36;64.61;98319.16;4930579;28;20293;-79
2021/12/16 12:47:48;;;;;;;17.60;9.90;;;;;;;6.36;65.67;98316.50;4938812;28;20129;-79
2021/12/16 12:50:23;;;;;;;20.42;11.23;;;;;;;6.17;68.29;98314.47;4938161;28;20522;-79
2021/12/16 12:52:52;;;;;;;38.80;18.55;;;;;;;6.34;68.46;98306.81;4954334;28;20062;-79
2021/12/16 12:55:32;;;;;;;17.83;10.32;;;;;;;6.28;69.13;98315.00;4938400;28;20113;-79
2021/12/16 12:58:08;;;;;;;23.40;10.68;;;;;;;6.20;70.94;98317.03;4954254;28;20093;-79
2021/12/16 13:00:40;;;;;;;22.90;12.25;;;;;;;6.35;70.20;98308.56;4932392;28;20517;-79
2021/12/16 13:03:11;;;;;;;22.52;11.18;;;;;;;6.43;68.22;98311.81;4937623;28;20038;-80
2021/12/16 13:05:38;;;;;;;25.83;11.70;;;;;;;6.42;69.17;98315.44;4936615;28;20033;-80
2021/12/16 13:08:08;;;;;;;21.83;9.98;;;;;;;6.40;69.32;98309.28;4936470;28;20421;-79
2021/12/16 13:10:46;;;;;;;18.55;10.32;;;;;;;6.42;69.20;98304.78;4946447;28;20638;-80
2021/12/16 13:26:41;;;;;;;51.58;24.05;;;;;;;6.10;70.91;98297.00;4954087;28;20073;-78
2021/12/16 13:29:20;;;;;;;32.25;15.65;;;;;;;6.25;71.42;98307.13;4942592;28;20416;-79
2021/12/16 13:32:11;;;;;;;25.27;12.00;;;;;;;6.22;72.94;98304.56;4959541;28;20061;-78
2021/12/16 13:34:51;;;;;;;20.42;10.75;;;;;;;6.12;73.26;98311.94;4958141;28;20058;-79
2021/12/16 13:37:23;;;;;;;29.88;14.73;;;;;;;6.12;74.08;98311.13;4958681;28;20029;-80
2021/12/16 13:40:20;;;;;;;25.02;13.48;;;;;;;6.09;73.08;98306.75;4942034;28;20035;-79
2021/12/16 13:43:09;;;;;;;27.17;12.77;;;;;;;5.98;74.36;98306.22;4957222;28;20044;-79
2021/12/16 13:58:09;;;;;;;26.47;12.77;;;;;;;5.91;75.64;98305.53;4960314;28;20132;-80
2021/12/16 14:03:08;;;;;;;25.33;13.02;;;;;;;5.73;79.93;98303.44;4957665;28;20035;-78
2021/12/16 14:05:44;;;;;;;27.52;13.60;;;;;;;5.76;80.67;98313.94;4955665;28;20034;-78
2021/12/16 14:08:26;;;;;;;31.67;14.77;;;;;;;5.65;81.50;98315.19;4952390;29;20094;-78
2021/12/16 14:10:59;;;;;;;26.02;13.07;;;;;;;5.34;81.63;98316.09;4954458;28;20422;-83
2021/12/16 14:14:10;;;;;;;30.42;14.63;;;;;;;5.28;82.61;98332.19;4938737;29;20031;-80
2021/12/16 14:46:44;;;;;;;33.90;17.30;;;;;;;4.88;85.53;98337.72;4957194;28;20031;-80
2021/12/16 14:49:10;;;;;;;35.85;17.90;;;;;;;4.98;85.70;98337.47;4941974;28;20030;-80
2021/12/16 14:51:36;;;;;;;38.95;19.35;;;;;;;4.96;85.61;98328.69;4940718;28;20030;-81
2021/12/16 14:54:01;;;;;;;38.70;17.70;;;;;;;4.96;86.90;98333.97;4939742;28;20116;-80
2021/12/16 14:56:28;;;;;;;32.15;15.75;;;;;;;4.98;85.77;98345.44;4939636;28;20027;-81
2021/12/16 14:58:57;;;;;;;31.30;14.02;;;;;;;4.95;86.67;98340.22;4939255;28;20045;-80
2021/12/16 15:01:28;;;;;;;31.38;16.38;;;;;;;4.96;86.31;98345.47;4928225;29;20495;-85
2021/12/16 15:03:54;;;;;;;30.95;15.10;;;;;;;4.95;86.54;98348.16;4932180;28;20121;-86
2021/12/16 15:06:33;;;;;;;27.80;14.57;;;;;;;4.91;86.90;98332.34;4950155;29;20035;-87
2021/12/16 15:09:11;;;;;;;39.20;18.38;;;;;;;4.78;86.19;98314.16;4942037;28;20031;-87
2021/12/16 15:11:49;;;;;;;47.95;21.35;;;;;;;4.88;84.71;98321.81;4958215;28;20073;-86
2021/12/16 15:14:30;;;;;;;50.47;26.10;;;;;;;4.89;87.00;98326.19;4942044;28;20149;-87
2021/12/16 15:43:56;;;;;;;54.10;28.30;;;;;;;4.76;97.38;98361.91;4920079;28;20082;-80
2021/12/16 15:46:29;;;;;;;62.40;31.75;;;;;;;4.79;97.59;98358.31;4939116;28;20535;-79
2021/12/16 15:48:55;;;;;;;;;;;;;;;4.79;99.79;98369.78;4958084;28;20031;-80
2021/12/16 15:51:23;;;;;;;56.50;28.38;;;;;;;4.81;100.00;98378.53;4950045;28;19914;-80
2021/12/16 15:53:54;;;;;;;74.60;32.40;;;;;;;4.69;100.00;98367.38;4948525;28;20418;-80
2021/12/16 15:56:23;;;;;;;72.45;35.63;;;;;;;4.81;100.00;98382.97;4931253;28;20035;-81
2021/12/16 15:58:59;;;;;;;45.45;23.50;;;;;;;4.81;100.00;98365.28;4943275;28;20046;-81
2021/12/16 16:01:29;;;;;;;37.58;16.90;;;;;;;4.82;100.00;98374.13;4919612;28;20042;-79
2021/12/16 16:03:56;;;;;;;32.40;16.55;;;;;;;4.78;100.00;98368.03;4941361;28;20039;-80
2021/12/16 16:06:22;;;;;;;31.17;16.63;;;;;;;4.87;99.45;98369.56;4944767;28;20035;-89
2021/12/16 16:08:58;;;;;;;31.52;16.08;;;;;;;4.86;99.20;98368.69;4965816;28;20038;-79
2021/12/16 16:11:34;;;;;;;44.85;17.70;;;;;;;4.89;97.64;98376.56;4949837;28;20054;-80
2021/12/16 16:14:03;;;;;;;46.83;24.63;;;;;;;4.82;99.27;98374.13;4947955;28;20175;-80
2021/12/16 16:16:38;;;;;;;40.92;20.45;;;;;;;4.76;99.78;98379.59;4920283;28;20031;-80
2021/12/16 16:19:05;;;;;;;44.63;24.23;;;;;;;4.78;99.85;98389.22;4945260;28;20529;-79
2021/12/16 16:21:47;;;;;;;38.28;21.30;;;;;;;4.67;100.00;98380.69;4948367;28;20407;-80
2021/12/16 16:24:43;;;;;;;42.55;23.27;;;;;;;4.77;100.00;98382.19;4944556;28;20125;-82
2021/12/16 16:27:13;;;;;;;47.92;25.05;;;;;;;4.71;100.00;98384.97;4937732;28;20042;-81
2021/12/16 16:29:42;;;;;;;46.42;25.48;;;;;;;4.77;100.00;98379.53;4937504;28;20062;-81
2021/12/16 16:32:08;;;;;;;57.30;28.92;;;;;;;4.66;100.00;98384.25;4944477;28;20106;-81
2021/12/16 16:34:51;;;;;;;65.32;34.08;;;;;;;4.71;100.00;98392.94;4958069;28;20110;-86
2021/12/16 16:37:25;;;;;;;81.43;36.95;;;;;;;4.65;100.00;98387.78;4950078;28;20030;-86
2021/12/16 16:39:54;;;;;;;60.50;29.60;;;;;;;4.74;100.00;98400.81;4949018;28;20034;-84
2021/12/16 16:42:20;;;;;;;73.32;37.35;;;;;;;4.70;100.00;98395.63;4929169;28;20031;-85
2021/12/16 16:44:55;;;;;;;54.30;25.55;;;;;;;4.65;100.00;98376.31;4932471;28;20038;-86
2021/12/16 16:47:39;;;;;;;63.60;30.73;;;;;;;4.64;100.00;98380.78;4933174;28;20073;-86
2021/12/16 16:50:08;;;;;;;38.95;21.15;;;;;;;4.43;100.00;98362.72;4932447;28;20114;-85
2021/12/16 16:52:45;;;;;;;56.20;28.58;;;;;;;4.67;100.00;98391.28;4933049;28;20491;-85
2021/12/16 16:55:23;;;;;;;59.88;31.05;;;;;;;4.67;100.00;98385.13;4939932;28;20073;-86
2021/12/16 16:58:00;;;;;;;54.80;27.90;;;;;;;4.47;100.00;98360.88;4949381;29;20542;-86
2021/12/16 17:00:33;;;;;;;55.92;26.35;;;;;;;4.65;100.00;98402.81;4954213;28;20494;-85